Time;durP1;ratioP1;P1;durP2;ratioP2;P2;SDS_P1;SDS_P2;PMS_P1;PMS_P2;Temp;Humidity;BMP_temperature;BMP_pressure;BME280_temperature;BME280_humidity;BME280_pressure;Samples;Min_cycle;Max_cycle;Signal;HPM_P1;HPM_P2
2022/09/18 00:02:06;;;;;;;9.55;3.55;;;;;;;;;;4953061;28;20509;-63
2022/09/18 00:04:33;;;;;;;7.00;3.15;;;;;;;;;;4947570;28;20110;-63
2022/09/18 00:06:58;;;;;;;9.27;3.00;;;;;;;;;;4948494;28;20110;-67
2022/09/18 00:09:24;;;;;;;8.57;3.50;;;;;;;;;;4950519;28;20050;-65
2022/09/18 00:11:50;;;;;;;6.57;3.08;;;;;;;;;;4948024;28;20053;-70
2022/09/18 00:14:19;;;;;;;7.55;3.22;;;;;;;;;;4945867;28;20046;-65
2022/09/18 00:16:46;;;;;;;6.32;2.75;;;;;;;;;;4945575;28;20063;-63
2022/09/18 00:19:12;;;;;;;9.55;3.15;;;;;;;;;;4948784;28;20062;-65
2022/09/18 00:21:46;;;;;;;8.82;3.30;;;;;;;;;;4947274;28;20085;-67
2022/09/18 00:24:12;;;;;;;;;;;;;;;;;;4944458;28;20051;-66
2022/09/18 00:26:38;;;;;;;9.15;3.30;;;;;;;;;;4947935;28;19922;-64
2022/09/18 00:29:05;;;;;;;11.15;3.42;;;;;;;;;;4948430;28;20057;-71
2022/09/18 00:31:34;;;;;;;8.38;2.97;;;;;;;;;;4948701;28;20043;-64
2022/09/18 00:34:02;;;;;;;5.72;3.03;;;;;;;;;;4949141;28;20074;-66
2022/09/18 00:36:29;;;;;;;11.98;3.67;;;;;;;;;;4948177;28;20070;-66
2022/09/18 00:38:58;;;;;;;7.13;3.40;;;;;;;;;;4949050;28;20047;-63
2022/09/18 00:41:26;;;;;;;9.77;3.63;;;;;;;;;;4950339;28;20504;-67
2022/09/18 00:44:30;;;;;;;10.13;4.53;;;;;;;;;;4949303;28;20198;-66
2022/09/18 00:47:02;;;;;;;15.30;4.80;;;;;;;;;;4957954;28;20047;-64
2022/09/18 00:49:28;;;;;;;21.02;5.22;;;;;;;;;;4956774;28;20058;-64
2022/09/18 00:51:57;;;;;;;13.93;4.72;;;;;;;;;;4947595;28;20383;-64
2022/09/18 00:54:38;;;;;;;12.63;4.88;;;;;;;;;;4949161;28;20047;-64
2022/09/18 00:57:08;;;;;;;12.20;4.88;;;;;;;;;;4938151;28;20126;-62
2022/09/18 00:59:36;;;;;;;12.38;4.72;;;;;;;;;;4942577;28;20572;-65
2022/09/18 01:02:03;;;;;;;11.45;4.63;;;;;;;;;;4944609;28;20055;-68
2022/09/18 01:04:29;;;;;;;9.40;4.50;;;;;;;;;;4948472;28;20573;-64
2022/09/18 01:07:04;;;;;;;11.23;4.28;;;;;;;;;;4947637;28;20051;-69
2022/09/18 01:09:33;;;;;;;10.40;4.50;;;;;;;;;;4945598;28;20046;-64
2022/09/18 01:12:09;;;;;;;8.45;4.25;;;;;;;;;;4948872;28;20052;-65
2022/09/18 01:15:04;;;;;;;9.02;4.07;;;;;;;;;;4948083;28;20105;-64
2022/09/18 01:17:52;;;;;;;10.20;4.40;;;;;;;;;;4950162;28;20056;-64
2022/09/18 01:20:48;;;;;;;11.18;4.13;;;;;;;;;;4948877;28;20138;-67
2022/09/18 01:23:18;;;;;;;10.00;3.88;;;;;;;;;;4945367;28;20066;-65
2022/09/18 01:25:55;;;;;;;9.52;4.18;;;;;;;;;;4949649;28;20143;-65
2022/09/18 01:28:28;;;;;;;8.20;3.80;;;;;;;;;;4949071;28;20051;-64
2022/09/18 01:30:57;;;;;;;9.77;4.20;;;;;;;;;;4944859;28;20512;-65
2022/09/18 01:33:42;;;;;;;8.65;3.35;;;;;;;;;;4949452;28;20047;-64
2022/09/18 01:36:12;;;;;;;9.30;3.70;;;;;;;;;;4947197;28;20047;-64
2022/09/18 01:38:47;;;;;;;8.77;3.53;;;;;;;;;;4948229;28;20074;-65
2022/09/18 01:41:21;;;;;;;6.88;3.70;;;;;;;;;;4949919;28;20400;-64
2022/09/18 01:43:57;;;;;;;9.48;3.63;;;;;;;;;;4949888;28;20059;-65
2022/09/18 01:46:24;;;;;;;6.75;3.60;;;;;;;;;;4952280;28;20600;-65
2022/09/18 01:48:58;;;;;;;8.45;3.80;;;;;;;;;;4944177;28;20055;-65
2022/09/18 01:51:37;;;;;;;6.63;3.78;;;;;;;;;;4948247;28;20113;-65
2022/09/18 01:54:11;;;;;;;7.15;3.00;;;;;;;;;;4949004;28;20127;-64
2022/09/18 01:56:43;;;;;;;15.18;3.33;;;;;;;;;;4949039;28;20070;-63
2022/09/18 01:59:15;;;;;;;8.48;3.67;;;;;;;;;;4950083;28;20461;-66
2022/09/18 02:01:43;;;;;;;9.55;3.40;;;;;;;;;;4950285;28;20043;-64
2022/09/18 02:04:18;;;;;;;7.40;2.90;;;;;;;;;;4948002;28;20564;-66
2022/09/18 02:07:02;;;;;;;6.13;3.10;;;;;;;;;;4937210;28;20047;-63
2022/09/18 02:09:29;;;;;;;8.02;3.20;;;;;;;;;;4950163;28;20051;-63
2022/09/18 02:11:59;;;;;;;7.00;2.95;;;;;;;;;;4944294;28;20051;-65
2022/09/18 02:14:30;;;;;;;10.07;3.38;;;;;;;;;;4950408;28;20059;-64
2022/09/18 02:17:04;;;;;;;6.47;2.90;;;;;;;;;;4950478;28;20047;-63
2022/09/18 02:19:34;;;;;;;;;;;;;;;;;;4948069;28;20051;-63
2022/09/18 02:22:03;;;;;;;6.53;3.30;;;;;;;;;;4948871;28;19942;-65
2022/09/18 02:24:34;;;;;;;8.48;3.50;;;;;;;;;;4951926;28;20054;-63
2022/09/18 02:27:01;;;;;;;8.18;3.25;;;;;;;;;;4950836;28;20051;-64
2022/09/18 02:29:29;;;;;;;7.63;3.10;;;;;;;;;;4946716;28;20053;-70
2022/09/18 02:31:57;;;;;;;12.20;3.30;;;;;;;;;;4952266;28;20094;-67
2022/09/18 02:34:23;;;;;;;6.15;3.08;;;;;;;;;;4945463;28;20425;-63
2022/09/18 02:37:18;;;;;;;11.55;3.20;;;;;;;;;;4944351;28;20071;-66
2022/09/18 02:40:02;;;;;;;7.93;3.10;;;;;;;;;;4938889;28;20055;-63
2022/09/18 02:42:38;;;;;;;5.93;3.10;;;;;;;;;;4951944;28;20112;-63
2022/09/18 02:45:19;;;;;;;9.13;3.30;;;;;;;;;;4946182;28;20087;-63
2022/09/18 02:47:56;;;;;;;7.22;3.10;;;;;;;;;;4961237;28;20043;-63
2022/09/18 02:50:25;;;;;;;8.75;3.35;;;;;;;;;;4946198;28;20043;-64
2022/09/18 02:52:56;;;;;;;5.38;2.92;;;;;;;;;;4950823;28;20070;-63
2022/09/18 02:55:30;;;;;;;8.93;3.53;;;;;;;;;;4950981;28;20051;-65
2022/09/18 02:58:04;;;;;;;12.68;3.30;;;;;;;;;;4952560;28;20047;-68
2022/09/18 03:00:31;;;;;;;7.82;3.03;;;;;;;;;;4950694;28;20051;-64
2022/09/18 03:02:58;;;;;;;10.80;3.72;;;;;;;;;;4951279;28;20047;-64
2022/09/18 03:05:25;;;;;;;9.50;3.38;;;;;;;;;;4951968;28;20051;-63
2022/09/18 03:07:51;;;;;;;10.30;3.25;;;;;;;;;;4951216;28;20461;-65
2022/09/18 03:10:18;;;;;;;9.88;3.47;;;;;;;;;;4949584;28;20457;-68
2022/09/18 03:12:43;;;;;;;9.45;3.47;;;;;;;;;;4949243;28;20048;-64
2022/09/18 03:15:10;;;;;;;8.77;3.55;;;;;;;;;;4950158;28;21416;-67
2022/09/18 03:17:36;;;;;;;12.60;3.60;;;;;;;;;;4950989;28;20078;-64
2022/09/18 03:20:05;;;;;;;11.43;3.55;;;;;;;;;;4950978;28;20485;-66
2022/09/18 03:22:31;;;;;;;9.18;3.30;;;;;;;;;;4949928;28;20035;-63
2022/09/18 03:24:57;;;;;;;9.98;3.50;;;;;;;;;;4949271;28;20256;-64
2022/09/18 03:27:23;;;;;;;12.23;3.95;;;;;;;;;;4952864;28;20045;-65
2022/09/18 03:29:48;;;;;;;7.75;3.13;;;;;;;;;;4951637;28;20047;-68
2022/09/18 03:32:14;;;;;;;11.07;3.20;;;;;;;;;;4951315;28;20047;-63
2022/09/18 03:34:40;;;;;;;13.45;3.30;;;;;;;;;;4950949;28;20043;-67
2022/09/18 03:37:06;;;;;;;9.38;2.88;;;;;;;;;;4950675;28;20096;-62
2022/09/18 03:39:32;;;;;;;9.20;2.55;;;;;;;;;;4950366;28;20055;-64
2022/09/18 03:41:58;;;;;;;8.93;2.67;;;;;;;;;;4950623;28;20696;-64
2022/09/18 03:44:24;;;;;;;9.60;2.30;;;;;;;;;;4964147;28;20044;-65
2022/09/18 03:46:50;;;;;;;12.65;2.20;;;;;;;;;;4953117;28;20059;-65
2022/09/18 03:49:15;;;;;;;13.48;2.78;;;;;;;;;;4953910;28;20054;-64
2022/09/18 03:51:41;;;;;;;12.07;2.13;;;;;;;;;;4952863;28;20043;-64
2022/09/18 03:54:07;;;;;;;18.95;3.00;;;;;;;;;;4949405;28;20047;-63
2022/09/18 03:56:37;;;;;;;13.00;2.90;;;;;;;;;;4950788;28;20109;-63
2022/09/18 03:59:02;;;;;;;10.70;2.88;;;;;;;;;;4952339;28;20552;-64
2022/09/18 04:01:28;;;;;;;14.18;2.97;;;;;;;;;;4950995;28;20386;-65
2022/09/18 04:03:54;;;;;;;12.20;2.63;;;;;;;;;;4950206;28;20046;-64
2022/09/18 04:06:20;;;;;;;15.77;3.03;;;;;;;;;;4949833;28;20047;-64
2022/09/18 04:08:46;;;;;;;11.73;2.63;;;;;;;;;;4947987;28;20047;-64
2022/09/18 04:11:12;;;;;;;12.82;2.63;;;;;;;;;;4950934;28;20047;-67
2022/09/18 04:13:38;;;;;;;16.27;3.38;;;;;;;;;;4948454;28;20047;-64
2022/09/18 04:16:04;;;;;;;15.52;2.22;;;;;;;;;;4950338;28;20051;-64
2022/09/18 04:18:30;;;;;;;12.40;2.63;;;;;;;;;;4950170;28;20493;-64
2022/09/18 04:20:56;;;;;;;13.48;2.17;;;;;;;;;;4947572;28;20150;-65
2022/09/18 04:23:22;;;;;;;9.63;2.35;;;;;;;;;;4950487;28;20493;-66
2022/09/18 04:25:47;;;;;;;13.35;2.78;;;;;;;;;;4950959;28;20043;-67
2022/09/18 04:28:13;;;;;;;12.55;2.28;;;;;;;;;;4943197;28;20417;-69
2022/09/18 04:30:39;;;;;;;7.25;1.83;;;;;;;;;;4947472;28;20043;-63
2022/09/18 04:33:06;;;;;;;9.35;1.83;;;;;;;;;;4949263;28;20046;-63
2022/09/18 04:35:32;;;;;;;17.85;2.70;;;;;;;;;;4949434;28;20102;-66
2022/09/18 04:37:58;;;;;;;10.38;2.20;;;;;;;;;;4949241;28;20489;-64
2022/09/18 04:40:24;;;;;;;13.63;2.30;;;;;;;;;;4950893;28;20059;-65
2022/09/18 04:42:50;;;;;;;14.98;2.40;;;;;;;;;;4947804;28;20047;-65
2022/09/18 04:45:16;;;;;;;11.13;2.47;;;;;;;;;;4946755;28;20047;-65
2022/09/18 04:47:44;;;;;;;12.63;2.40;;;;;;;;;;4950699;28;20433;-66
2022/09/18 04:50:10;;;;;;;7.13;2.00;;;;;;;;;;4948358;28;20089;-69
2022/09/18 04:52:36;;;;;;;9.95;2.33;;;;;;;;;;4947258;28;20480;-64
2022/09/18 04:55:02;;;;;;;16.25;2.20;;;;;;;;;;4949034;28;20050;-65
2022/09/18 04:57:28;;;;;;;12.35;2.60;;;;;;;;;;4948376;28;20470;-64
2022/09/18 04:59:54;;;;;;;14.48;2.35;;;;;;;;;;4948094;28;20058;-64
2022/09/18 05:02:19;;;;;;;11.18;2.63;;;;;;;;;;4944664;28;20055;-65
2022/09/18 05:04:45;;;;;;;13.20;2.40;;;;;;;;;;4948999;28;20047;-64
2022/09/18 05:07:11;;;;;;;8.25;2.10;;;;;;;;;;4945474;28;20051;-64
2022/09/18 05:09:37;;;;;;;14.75;2.80;;;;;;;;;;4946080;28;20073;-64
2022/09/18 05:12:03;;;;;;;13.07;1.92;;;;;;;;;;4948567;28;20416;-67
2022/09/18 05:14:29;;;;;;;13.98;2.05;;;;;;;;;;4948566;28;20055;-67
2022/09/18 05:16:55;;;;;;;11.07;2.00;;;;;;;;;;4939841;28;20178;-64
2022/09/18 05:19:22;;;;;;;12.27;2.05;;;;;;;;;;4946192;28;20063;-64
2022/09/18 05:21:50;;;;;;;5.32;1.60;;;;;;;;;;4949541;28;20039;-64
2022/09/18 05:24:17;;;;;;;7.63;1.35;;;;;;;;;;4949075;28;20075;-64
2022/09/18 05:26:44;;;;;;;8.35;1.50;;;;;;;;;;4947632;28;20050;-63
2022/09/18 05:29:10;;;;;;;20.75;2.03;;;;;;;;;;4946944;28;20065;-63
2022/09/18 05:31:36;;;;;;;5.78;1.23;;;;;;;;;;4944627;28;20440;-70
2022/09/18 05:34:02;;;;;;;6.72;1.35;;;;;;;;;;4945711;28;20043;-63
2022/09/18 05:36:28;;;;;;;11.00;1.80;;;;;;;;;;4951668;28;20815;-63
2022/09/18 05:38:53;;;;;;;6.85;1.77;;;;;;;;;;4950093;28;20051;-65
2022/09/18 05:41:19;;;;;;;9.90;1.60;;;;;;;;;;4949422;28;20047;-63
2022/09/18 05:43:48;;;;;;;7.25;1.88;;;;;;;;;;4947147;28;20047;-68
2022/09/18 05:46:14;;;;;;;7.53;1.52;;;;;;;;;;4953062;28;20050;-66
2022/09/18 05:48:40;;;;;;;8.82;1.75;;;;;;;;;;4953622;28;20445;-66
2022/09/18 05:51:07;;;;;;;7.50;1.75;;;;;;;;;;4958680;28;20051;-67
2022/09/18 05:53:32;;;;;;;8.75;2.42;;;;;;;;;;4952853;28;20043;-66
2022/09/18 05:55:59;;;;;;;21.00;3.17;;;;;;;;;;4943259;28;20115;-68
2022/09/18 05:58:25;;;;;;;13.57;2.65;;;;;;;;;;4947938;28;20043;-69
2022/09/18 06:00:51;;;;;;;24.00;3.55;;;;;;;;;;4946052;28;20055;-72
2022/09/18 06:03:17;;;;;;;12.70;3.05;;;;;;;;;;4947921;28;20113;-67
2022/09/18 06:05:51;;;;;;;11.65;2.70;;;;;;;;;;4945829;28;20047;-68
2022/09/18 06:08:16;;;;;;;11.87;3.43;;;;;;;;;;4943686;28;20485;-69
2022/09/18 06:10:42;;;;;;;12.80;3.00;;;;;;;;;;4948493;28;20070;-68
2022/09/18 06:13:11;;;;;;;11.93;3.17;;;;;;;;;;4948002;28;20054;-73
2022/09/18 06:15:38;;;;;;;14.38;3.42;;;;;;;;;;4947772;28;20106;-72
2022/09/18 06:18:07;;;;;;;13.38;3.28;;;;;;;;;;4937125;28;20516;-67
2022/09/18 06:20:33;;;;;;;10.07;2.58;;;;;;;;;;4941850;28;20105;-69
2022/09/18 06:23:00;;;;;;;10.95;2.50;;;;;;;;;;4940874;28;20051;-67
2022/09/18 06:25:27;;;;;;;7.90;2.30;;;;;;;;;;4942855;28;20134;-67
2022/09/18 06:27:58;;;;;;;10.15;2.35;;;;;;;;;;4942112;28;20217;-66
2022/09/18 06:30:33;;;;;;;9.90;3.00;;;;;;;;;;4942933;28;20055;-68
2022/09/18 06:33:04;;;;;;;8.20;2.00;;;;;;;;;;4944353;28;20109;-66
2022/09/18 06:35:34;;;;;;;8.13;2.83;;;;;;;;;;4943076;28;20039;-64
2022/09/18 06:38:04;;;;;;;6.57;2.80;;;;;;;;;;4946466;28;20142;-67
2022/09/18 06:40:31;;;;;;;6.25;1.88;;;;;;;;;;4943624;28;20051;-65
2022/09/18 06:43:00;;;;;;;9.52;2.10;;;;;;;;;;4941993;28;20055;-68
2022/09/18 06:45:27;;;;;;;6.18;2.25;;;;;;;;;;4939955;28;20227;-66
2022/09/18 06:47:54;;;;;;;6.32;2.05;;;;;;;;;;4944341;28;20055;-65
2022/09/18 06:50:21;;;;;;;7.03;1.95;;;;;;;;;;4938741;28;20067;-68
2022/09/18 06:52:47;;;;;;;6.55;2.10;;;;;;;;;;4941077;28;20059;-71
2022/09/18 06:55:14;;;;;;;7.43;2.33;;;;;;;;;;4941015;28;20055;-66
2022/09/18 06:57:41;;;;;;;5.72;2.20;;;;;;;;;;4939712;28;20110;-66
2022/09/18 07:00:08;;;;;;;8.38;2.10;;;;;;;;;;4941854;28;20105;-67
2022/09/18 07:02:35;;;;;;;9.55;2.78;;;;;;;;;;4940068;28;20504;-69
2022/09/18 07:05:00;;;;;;;6.15;2.50;;;;;;;;;;4943255;28;20050;-67
2022/09/18 07:07:26;;;;;;;8.43;2.70;;;;;;;;;;4940862;28;20105;-69
2022/09/18 07:09:52;;;;;;;8.15;3.08;;;;;;;;;;4943883;28;20485;-69
2022/09/18 07:12:18;;;;;;;9.13;2.78;;;;;;;;;;4940534;29;20127;-70
2022/09/18 07:14:44;;;;;;;10.65;3.10;;;;;;;;;;4940784;28;20074;-67
2022/09/18 07:17:11;;;;;;;13.80;3.83;;;;;;;;;;4942698;28;20055;-67
2022/09/18 07:19:37;;;;;;;10.88;3.28;;;;;;;;;;4940927;28;20053;-64
2022/09/18 07:22:04;;;;;;;13.00;3.40;;;;;;;;;;4937699;28;20069;-70
2022/09/18 07:24:29;;;;;;;9.05;3.42;;;;;;;;;;4942323;28;20046;-70
2022/09/18 07:26:57;;;;;;;13.45;4.28;;;;;;;;;;4943347;28;20055;-71
2022/09/18 07:29:23;;;;;;;9.77;3.50;;;;;;;;;;4943878;28;20055;-72
2022/09/18 07:31:49;;;;;;;10.68;3.13;;;;;;;;;;4942951;28;20057;-68
2022/09/18 07:34:14;;;;;;;14.13;3.70;;;;;;;;;;4940449;28;20063;-69
2022/09/18 07:36:40;;;;;;;18.63;3.85;;;;;;;;;;4945256;28;20058;-67
2022/09/18 07:39:06;;;;;;;18.00;3.80;;;;;;;;;;4943248;28;20074;-66
2022/09/18 07:41:32;;;;;;;9.50;3.20;;;;;;;;;;4940399;28;20059;-69
2022/09/18 07:43:58;;;;;;;15.90;3.65;;;;;;;;;;4940174;28;20054;-71
2022/09/18 07:46:23;;;;;;;12.27;3.17;;;;;;;;;;4940823;28;21107;-71
2022/09/18 07:48:49;;;;;;;12.25;3.38;;;;;;;;;;4941237;28;20396;-68
2022/09/18 07:51:15;;;;;;;12.57;2.80;;;;;;;;;;4942562;28;20059;-69
2022/09/18 07:53:41;;;;;;;10.10;3.38;;;;;;;;;;4943383;28;20043;-69
2022/09/18 07:56:08;;;;;;;11.40;3.47;;;;;;;;;;4944992;28;20094;-71
2022/09/18 07:58:35;;;;;;;8.20;3.53;;;;;;;;;;4945488;28;20051;-71
2022/09/18 08:01:02;;;;;;;11.95;3.50;;;;;;;;;;4942535;28;20078;-71
2022/09/18 08:03:29;;;;;;;10.52;3.45;;;;;;;;;;4941514;28;20054;-71
2022/09/18 08:05:55;;;;;;;13.80;3.42;;;;;;;;;;4942722;28;20047;-69
2022/09/18 08:08:21;;;;;;;13.65;3.53;;;;;;;;;;4943242;28;21744;-69
2022/09/18 08:10:47;;;;;;;10.45;3.30;;;;;;;;;;4944651;28;20055;-68
2022/09/18 08:13:13;;;;;;;14.82;3.60;;;;;;;;;;4949486;28;20602;-68
2022/09/18 08:15:41;;;;;;;9.25;3.78;;;;;;;;;;4965038;28;20130;-66
2022/09/18 08:18:10;;;;;;;12.68;4.03;;;;;;;;;;4948953;28;20051;-67
2022/09/18 08:20:36;;;;;;;10.00;3.22;;;;;;;;;;4948663;28;20077;-71
2022/09/18 08:23:04;;;;;;;9.75;3.28;;;;;;;;;;4947110;28;20137;-68
2022/09/18 08:25:30;;;;;;;9.18;3.40;;;;;;;;;;4948107;28;20051;-70
2022/09/18 08:28:04;;;;;;;10.95;3.72;;;;;;;;;;4949304;28;20497;-67
2022/09/18 08:30:30;;;;;;;9.02;3.80;;;;;;;;;;4947470;28;20670;-72
2022/09/18 08:33:01;;;;;;;12.30;3.80;;;;;;;;;;4948898;28;20122;-66
2022/09/18 08:35:29;;;;;;;13.52;4.18;;;;;;;;;;4948574;28;20138;-67
2022/09/18 08:37:55;;;;;;;16.13;5.25;;;;;;;;;;4945163;28;20081;-71
2022/09/18 08:40:41;;;;;;;11.68;4.45;;;;;;;;;;4948510;28;20517;-68
2022/09/18 08:43:13;;;;;;;12.35;4.50;;;;;;;;;;4952862;28;20051;-70
2022/09/18 08:45:57;;;;;;;13.40;5.13;;;;;;;;;;4947168;28;20295;-66
2022/09/18 08:49:06;;;;;;;12.05;4.35;;;;;;;;;;4950264;28;20039;-68
2022/09/18 08:51:39;;;;;;;11.25;4.18;;;;;;;;;;4951708;28;20043;-71
2022/09/18 08:54:21;;;;;;;10.43;4.25;;;;;;;;;;4952048;28;20046;-72
2022/09/18 08:56:49;;;;;;;13.73;4.35;;;;;;;;;;4943796;28;21303;-68
2022/09/18 08:59:35;;;;;;;11.88;4.75;;;;;;;;;;4957247;28;20091;-72
2022/09/18 09:02:19;;;;;;;10.65;4.60;;;;;;;;;;4946118;28;20055;-72
2022/09/18 09:04:45;;;;;;;14.00;4.82;;;;;;;;;;4950179;28;20078;-72
2022/09/18 09:07:27;;;;;;;8.70;3.95;;;;;;;;;;4951335;28;20062;-71
2022/09/18 09:10:17;;;;;;;13.63;4.43;;;;;;;;;;4952156;28;20122;-70
2022/09/18 09:13:19;;;;;;;8.57;3.72;;;;;;;;;;4952021;28;20056;-70
2022/09/18 09:16:04;;;;;;;9.90;3.83;;;;;;;;;;4949631;28;20051;-70
2022/09/18 09:18:40;;;;;;;9.55;3.72;;;;;;;;;;4944277;28;20070;-70
2022/09/18 09:21:13;;;;;;;10.57;4.15;;;;;;;;;;4952385;28;20051;-70
2022/09/18 09:24:19;;;;;;;12.85;3.75;;;;;;;;;;4960683;28;20047;-70
2022/09/18 09:26:49;;;;;;;10.55;4.78;;;;;;;;;;4953023;28;20051;-68
2022/09/18 09:29:29;;;;;;;10.93;4.60;;;;;;;;;;4952211;28;20045;-70
2022/09/18 09:31:58;;;;;;;11.85;4.28;;;;;;;;;;4954697;28;20046;-73
2022/09/18 09:34:53;;;;;;;8.70;4.40;;;;;;;;;;4956167;28;20053;-70
2022/09/18 09:37:26;;;;;;;11.30;3.75;;;;;;;;;;4933138;29;20043;-70
2022/09/18 09:40:01;;;;;;;15.18;4.85;;;;;;;;;;4933243;29;20071;-65
2022/09/18 09:42:39;;;;;;;14.98;4.68;;;;;;;;;;4933940;29;20052;-69
2022/09/18 09:45:27;;;;;;;13.80;4.72;;;;;;;;;;4915403;29;20051;-71
2022/09/18 09:48:33;;;;;;;14.10;5.05;;;;;;;;;;4931280;29;20516;-68
2022/09/18 09:51:39;;;;;;;11.18;5.03;;;;;;;;;;4924691;29;20553;-68
2022/09/18 09:54:09;;;;;;;11.63;4.82;;;;;;;;;;4923289;29;20056;-69
2022/09/18 09:57:22;;;;;;;13.45;4.75;;;;;;;;;;4928131;29;20055;-68
2022/09/18 10:00:09;;;;;;;8.82;4.55;;;;;;;;;;4921847;29;20518;-69
2022/09/18 10:03:05;;;;;;;12.35;5.28;;;;;;;;;;4925117;29;20173;-73
2022/09/18 10:05:38;;;;;;;12.80;5.00;;;;;;;;;;4924896;29;20056;-68
2022/09/18 10:08:22;;;;;;;7.90;4.63;;;;;;;;;;4922490;29;20063;-68
2022/09/18 10:10:55;;;;;;;9.18;4.72;;;;;;;;;;4925790;29;20071;-71
2022/09/18 10:13:26;;;;;;;11.73;5.30;;;;;;;;;;4924949;29;20048;-70
2022/09/18 10:16:24;;;;;;;8.30;5.07;;;;;;;;;;4945573;28;20670;-70
2022/09/18 10:18:51;;;;;;;8.05;4.78;;;;;;;;;;4942003;28;20053;-69
2022/09/18 10:21:19;;;;;;;10.85;5.25;;;;;;;;;;4947104;28;20463;-72
2022/09/18 10:24:08;;;;;;;11.38;5.40;;;;;;;;;;4948802;28;20070;-69
2022/09/18 10:26:58;;;;;;;10.02;4.78;;;;;;;;;;4948334;28;20150;-67
2022/09/18 10:29:24;;;;;;;11.07;3.92;;;;;;;;;;4944837;28;20055;-69
2022/09/18 10:31:55;;;;;;;8.52;3.60;;;;;;;;;;4946330;28;20053;-66
2022/09/18 10:34:45;;;;;;;10.77;3.92;;;;;;;;;;4943105;28;20043;-69
2022/09/18 10:37:15;;;;;;;6.55;3.25;;;;;;;;;;4940575;28;20425;-70
2022/09/18 10:39:50;;;;;;;5.65;3.50;;;;;;;;;;4938644;28;20545;-69
2022/09/18 10:42:20;;;;;;;8.25;3.15;;;;;;;;;;4940743;28;20047;-69
2022/09/18 10:44:57;;;;;;;11.82;3.15;;;;;;;;;;4944586;28;20077;-70
2022/09/18 10:47:29;;;;;;;6.68;2.90;;;;;;;;;;4959585;28;20055;-67
2022/09/18 10:50:10;;;;;;;8.93;3.35;;;;;;;;;;4949779;28;20043;-65
2022/09/18 10:52:41;;;;;;;9.05;3.70;;;;;;;;;;4949061;28;20372;-69
2022/09/18 10:55:17;;;;;;;13.10;4.53;;;;;;;;;;4947324;28;20090;-65
2022/09/18 10:57:55;;;;;;;7.70;4.57;;;;;;;;;;4945296;28;20050;-73
2022/09/18 11:00:24;;;;;;;8.57;3.83;;;;;;;;;;4947290;28;20063;-68
2022/09/18 11:03:00;;;;;;;8.55;3.80;;;;;;;;;;4945976;28;20039;-65
2022/09/18 11:05:34;;;;;;;6.32;3.10;;;;;;;;;;4954742;28;20046;-63
2022/09/18 11:08:12;;;;;;;8.77;3.17;;;;;;;;;;4945244;28;20485;-64
2022/09/18 11:10:37;;;;;;;7.00;3.08;;;;;;;;;;4940575;28;20071;-64
2022/09/18 11:13:04;;;;;;;7.43;2.95;;;;;;;;;;4948293;28;20043;-69
2022/09/18 11:15:35;;;;;;;6.10;2.90;;;;;;;;;;4950852;28;20126;-67
2022/09/18 11:18:11;;;;;;;7.60;3.25;;;;;;;;;;4949327;28;20047;-67
2022/09/18 11:20:43;;;;;;;7.82;3.25;;;;;;;;;;4947882;28;20489;-63
2022/09/18 11:23:17;;;;;;;6.38;3.03;;;;;;;;;;4948445;28;20051;-66
2022/09/18 11:25:48;;;;;;;5.65;2.90;;;;;;;;;;4948325;28;20043;-64
2022/09/18 11:28:29;;;;;;;8.57;3.47;;;;;;;;;;4948328;28;20055;-63
2022/09/18 11:31:10;;;;;;;6.53;3.28;;;;;;;;;;4947508;28;20082;-64
2022/09/18 11:33:49;;;;;;;9.48;3.70;;;;;;;;;;4947934;28;20401;-64
2022/09/18 11:36:24;;;;;;;9.90;4.05;;;;;;;;;;4942408;28;20098;-64
2022/09/18 11:38:50;;;;;;;8.48;3.67;;;;;;;;;;4949932;28;20051;-66
2022/09/18 11:41:33;;;;;;;10.07;3.30;;;;;;;;;;4961455;28;20055;-66
2022/09/18 11:44:30;;;;;;;8.45;3.90;;;;;;;;;;4950104;28;20091;-63
2022/09/18 11:47:20;;;;;;;9.52;3.50;;;;;;;;;;4950389;28;20051;-67
2022/09/18 11:49:57;;;;;;;8.95;3.42;;;;;;;;;;4935685;28;20137;-65
2022/09/18 11:52:30;;;;;;;11.23;4.00;;;;;;;;;;4944794;28;20074;-70
2022/09/18 11:55:15;;;;;;;8.98;3.92;;;;;;;;;;4942824;28;20073;-65
2022/09/18 11:57:57;;;;;;;7.40;3.65;;;;;;;;;;4944073;28;20066;-67
2022/09/18 12:00:30;;;;;;;12.98;4.10;;;;;;;;;;4940316;28;20103;-69
2022/09/18 12:02:59;;;;;;;11.20;3.75;;;;;;;;;;4939886;28;20051;-66
2022/09/18 12:05:51;;;;;;;7.90;3.60;;;;;;;;;;4942900;28;20043;-68
2022/09/18 12:08:38;;;;;;;11.50;4.13;;;;;;;;;;4941104;28;20063;-68
2022/09/18 12:11:13;;;;;;;9.60;3.95;;;;;;;;;;4942891;28;20063;-64
2022/09/18 12:13:50;;;;;;;9.30;3.85;;;;;;;;;;4930938;28;20075;-65
2022/09/18 12:16:22;;;;;;;11.52;3.92;;;;;;;;;;4942481;28;20059;-65
2022/09/18 12:18:57;;;;;;;11.85;4.00;;;;;;;;;;4939226;28;20070;-66
2022/09/18 12:21:40;;;;;;;6.40;3.50;;;;;;;;;;4935459;28;20065;-65
2022/09/18 12:24:13;;;;;;;10.65;3.97;;;;;;;;;;4943113;28;20047;-67
2022/09/18 12:26:51;;;;;;;12.30;4.03;;;;;;;;;;4943181;28;20043;-64
2022/09/18 12:29:47;;;;;;;10.98;3.38;;;;;;;;;;4941289;28;20380;-64
2022/09/18 12:32:28;;;;;;;7.80;3.65;;;;;;;;;;4941887;28;20110;-70
2022/09/18 12:35:20;;;;;;;8.05;4.03;;;;;;;;;;4941661;28;20356;-67
2022/09/18 12:38:08;;;;;;;10.73;3.92;;;;;;;;;;4942061;28;20072;-71
2022/09/18 12:41:01;;;;;;;8.45;3.90;;;;;;;;;;4941879;28;20055;-65
2022/09/18 12:44:02;;;;;;;11.70;4.00;;;;;;;;;;4946028;28;20086;-65
2022/09/18 12:46:50;;;;;;;14.43;3.80;;;;;;;;;;4938370;28;20062;-66
2022/09/18 12:49:21;;;;;;;10.07;3.83;;;;;;;;;;4941377;28;20078;-68
2022/09/18 12:51:53;;;;;;;8.27;3.88;;;;;;;;;;4942346;28;20060;-66
2022/09/18 12:54:55;;;;;;;11.82;3.88;;;;;;;;;;4943358;28;20043;-66
2022/09/18 12:57:45;;;;;;;8.93;3.65;;;;;;;;;;4944635;28;20047;-70
2022/09/18 13:00:14;;;;;;;10.68;4.43;;;;;;;;;;4949634;28;20061;-66
2022/09/18 13:02:57;;;;;;;11.73;4.13;;;;;;;;;;4950061;28;20049;-66
2022/09/18 13:05:33;;;;;;;10.70;3.95;;;;;;;;;;4945844;28;20066;-69
2022/09/18 13:08:27;;;;;;;8.95;3.50;;;;;;;;;;4942410;28;20058;-68
2022/09/18 13:11:00;;;;;;;10.98;4.03;;;;;;;;;;4947610;28;20043;-68
2022/09/18 13:13:34;;;;;;;14.85;4.80;;;;;;;;;;4946750;28;20047;-67
2022/09/18 13:16:10;;;;;;;14.93;4.88;;;;;;;;;;4945859;28;20122;-67
2022/09/18 13:18:44;;;;;;;15.35;6.13;;;;;;;;;;4946094;28;20531;-66
2022/09/18 13:21:23;;;;;;;15.52;5.60;;;;;;;;;;4957581;28;20516;-67
2022/09/18 13:23:51;;;;;;;18.17;6.60;;;;;;;;;;4944889;28;20051;-70
2022/09/18 13:26:18;;;;;;;12.20;4.75;;;;;;;;;;4951288;28;20507;-69
2022/09/18 13:28:44;;;;;;;19.52;6.57;;;;;;;;;;4964101;28;20496;-67
2022/09/18 13:31:20;;;;;;;24.30;7.72;;;;;;;;;;4947164;28;20075;-68
2022/09/18 13:34:05;;;;;;;13.65;4.55;;;;;;;;;;4944967;28;20412;-66
2022/09/18 13:36:38;;;;;;;13.02;4.97;;;;;;;;;;4948558;28;20351;-65
2022/09/18 13:39:27;;;;;;;21.83;5.00;;;;;;;;;;4950485;28;20413;-67
2022/09/18 13:41:58;;;;;;;13.63;4.50;;;;;;;;;;4949329;28;20793;-67
2022/09/18 13:44:33;;;;;;;11.95;3.72;;;;;;;;;;4947495;28;20046;-69
2022/09/18 13:47:13;;;;;;;14.35;4.45;;;;;;;;;;4932319;29;20402;-66
2022/09/18 13:49:56;;;;;;;11.95;4.40;;;;;;;;;;4948139;28;20047;-67
2022/09/18 13:52:34;;;;;;;11.50;4.50;;;;;;;;;;4946307;28;20039;-70
2022/09/18 13:55:11;;;;;;;13.57;4.53;;;;;;;;;;4951936;28;20075;-68
2022/09/18 13:57:38;;;;;;;13.75;3.72;;;;;;;;;;4946860;28;20040;-68
2022/09/18 14:00:33;;;;;;;14.48;4.15;;;;;;;;;;4947737;28;20049;-66
2022/09/18 14:03:05;;;;;;;;;;;;;;;;;;4939344;28;20606;-67
2022/09/18 14:05:37;;;;;;;12.25;4.53;;;;;;;;;;4960950;28;19922;-70
2022/09/18 14:08:21;;;;;;;10.43;3.65;;;;;;;;;;4950725;28;20090;-72
2022/09/18 14:10:47;;;;;;;10.93;3.83;;;;;;;;;;4950523;28;20051;-67
2022/09/18 14:13:16;;;;;;;13.48;3.28;;;;;;;;;;4955079;28;20101;-68
2022/09/18 14:15:52;;;;;;;9.15;3.10;;;;;;;;;;4951384;28;20051;-69
2022/09/18 14:18:27;;;;;;;11.55;3.47;;;;;;;;;;4958121;28;20054;-65
2022/09/18 14:20:57;;;;;;;15.23;3.40;;;;;;;;;;4950102;28;20079;-67
2022/09/18 14:23:33;;;;;;;13.43;3.67;;;;;;;;;;4948878;28;20436;-70
2022/09/18 14:25:59;;;;;;;13.07;5.03;;;;;;;;;;4946128;28;20051;-68
2022/09/18 14:28:28;;;;;;;12.98;6.50;;;;;;;;;;4949434;28;20049;-64
2022/09/18 14:31:30;;;;;;;11.07;4.13;;;;;;;;;;4951088;28;20055;-68
2022/09/18 14:34:02;;;;;;;11.73;3.65;;;;;;;;;;4926617;29;20437;-64
2022/09/18 14:36:54;;;;;;;14.15;4.47;;;;;;;;;;4927436;29;20095;-67
2022/09/18 14:39:27;;;;;;;11.23;3.80;;;;;;;;;;4930891;29;20051;-66
2022/09/18 14:42:05;;;;;;;9.70;3.70;;;;;;;;;;4936331;29;20063;-66
2022/09/18 14:44:32;;;;;;;10.13;3.38;;;;;;;;;;4939307;29;20058;-66
2022/09/18 14:47:02;;;;;;;8.95;3.15;;;;;;;;;;4931166;29;20510;-65
2022/09/18 14:49:42;;;;;;;19.42;4.13;;;;;;;;;;4932081;29;20380;-66
2022/09/18 14:52:22;;;;;;;8.60;3.30;;;;;;;;;;4928210;29;20055;-68
2022/09/18 14:54:50;;;;;;;9.02;3.10;;;;;;;;;;4930387;29;20043;-67
2022/09/18 14:57:20;;;;;;;10.63;3.08;;;;;;;;;;4927302;29;20052;-69
2022/09/18 14:59:55;;;;;;;8.48;3.08;;;;;;;;;;4921147;29;20050;-70
2022/09/18 15:02:30;;;;;;;21.30;4.03;;;;;;;;;;4922201;29;20055;-70
2022/09/18 15:04:58;;;;;;;8.77;3.13;;;;;;;;;;4926595;29;20040;-64
2022/09/18 15:07:25;;;;;;;8.70;3.88;;;;;;;;;;4927372;29;20053;-64
2022/09/18 15:09:53;;;;;;;9.40;3.35;;;;;;;;;;4940921;28;20121;-64